createdAt,value
2023-01-05T00:01:07.497Z,98229.88
2023-01-05T00:03:35.649Z,98246.63
2023-01-05T00:06:03.699Z,98243.94
2023-01-05T00:08:34.778Z,98243.97
2023-01-05T00:11:36.495Z,98249.31
2023-01-05T00:14:21.763Z,98245.69
2023-01-05T00:17:07.084Z,98254.56
2023-01-05T00:19:52.695Z,98254.75
2023-01-05T00:22:34.677Z,98261.94
2023-01-05T00:25:11.754Z,98271.69
2023-01-05T00:27:40.815Z,98276.19
2023-01-05T00:30:11.658Z,98264.81
2023-01-05T00:32:38.268Z,98255.13
2023-01-05T00:35:05.082Z,98269.25
2023-01-05T00:37:33.904Z,98275.44
2023-01-05T00:40:00.777Z,98271.03
2023-01-05T00:42:27.846Z,98279.00
2023-01-05T00:44:54.474Z,98268.47
2023-01-05T00:47:20.966Z,98281.66
2023-01-05T00:49:47.487Z,98271.13
2023-01-05T00:52:13.954Z,98276.41
2023-01-05T00:54:40.401Z,98258.75
2023-01-05T00:57:09.659Z,98263.06
2023-01-05T00:59:36.166Z,98270.97
2023-01-05T01:02:02.820Z,98259.56
2023-01-05T01:04:31.947Z,98278.97
2023-01-05T01:06:58.421Z,98272.78
2023-01-05T01:09:25.213Z,98272.72
2023-01-05T01:11:54.675Z,98299.13
2023-01-05T01:14:21.242Z,98286.78
2023-01-05T01:16:47.728Z,98284.19
2023-01-05T01:19:19.750Z,98292.09
2023-01-05T01:21:46.241Z,98287.66
2023-01-05T01:24:19.973Z,98294.72
2023-01-05T01:26:46.861Z,98312.38
2023-01-05T01:29:13.692Z,98313.28
2023-01-05T01:31:40.314Z,98315.97
2023-01-05T01:34:09.606Z,98329.16
2023-01-05T01:36:36.090Z,98327.47
2023-01-05T01:39:02.556Z,98306.34
2023-01-05T01:41:29.061Z,98311.63
2023-01-05T01:43:57.145Z,98314.22
2023-01-05T01:46:25.235Z,98327.47
2023-01-05T01:48:53.621Z,98339.84
2023-01-05T01:51:31.909Z,98334.53
2023-01-05T01:54:01.279Z,98337.19
2023-01-05T01:56:34.376Z,98341.63
2023-01-05T01:59:01.258Z,98339.00
2023-01-05T02:01:27.942Z,98329.28
2023-01-05T02:03:56.113Z,98323.13
2023-01-05T02:06:23.143Z,98331.06
2023-01-05T02:08:50.077Z,98330.22
2023-01-05T02:11:43.535Z,98321.44
2023-01-05T02:14:25.140Z,98327.59
2023-01-05T02:16:54.670Z,98339.06
2023-01-05T02:19:59.315Z,98338.19
2023-01-05T02:22:47.004Z,98339.94
2023-01-05T02:25:28.517Z,98346.09
2023-01-05T02:28:04.084Z,98350.53
2023-01-05T02:30:33.848Z,98324.09
2023-01-05T02:33:21.848Z,98328.50
2023-01-05T02:36:11.521Z,98325.88
2023-01-05T02:38:46.601Z,98324.97
2023-01-05T02:41:31.405Z,98318.81
2023-01-05T02:43:58.428Z,98316.19
2023-01-05T02:46:24.913Z,98316.16
2023-01-05T02:48:56.648Z,98310.88
2023-01-05T02:51:29.828Z,98316.97
2023-01-05T02:54:34.829Z,98320.50
2023-01-05T02:57:50.869Z,98317.91
2023-01-05T03:00:24.853Z,98327.50
2023-01-05T03:02:56.490Z,98330.16
2023-01-05T03:05:30.783Z,98319.59
2023-01-05T03:08:07.004Z,98331.06
2023-01-05T03:11:05.457Z,98322.22
2023-01-05T03:13:41.314Z,98324.03
2023-01-05T03:16:16.268Z,98330.19
2023-01-05T03:19:02.471Z,98329.31
2023-01-05T03:21:29.723Z,98328.38
2023-01-05T03:24:16.278Z,98316.94
2023-01-05T03:27:02.487Z,98338.94
2023-01-05T03:29:48.008Z,98335.47
2023-01-05T03:32:45.502Z,98318.75
2023-01-05T03:35:34.424Z,98326.66
2023-01-05T03:38:14.721Z,98333.72
2023-01-05T03:40:45.777Z,98331.03
2023-01-05T03:43:13.286Z,98327.53
2023-01-05T03:45:44.527Z,98319.63
2023-01-05T03:48:11.430Z,98331.94
2023-01-05T03:50:38.193Z,98331.94
2023-01-05T03:53:04.707Z,98323.13
2023-01-05T03:55:31.154Z,98342.53
2023-01-05T03:57:57.588Z,98348.66
2023-01-05T04:00:25.698Z,98339.03
2023-01-05T04:02:56.065Z,98339.94
2023-01-05T04:05:22.904Z,98345.13
2023-01-05T04:07:49.457Z,98353.09
2023-01-05T04:10:16.299Z,98351.31
2023-01-05T04:12:42.858Z,98371.53
2023-01-05T04:15:10.012Z,98352.19
2023-01-05T04:17:36.471Z,98361.91
2023-01-05T04:20:05.962Z,98362.81
2023-01-05T04:22:33.317Z,98366.28
2023-01-05T04:24:59.806Z,98362.78
2023-01-05T04:27:26.342Z,98359.28
2023-01-05T04:29:52.797Z,98361.94
2023-01-05T04:32:19.388Z,98375.13
2023-01-05T04:34:45.830Z,98366.31
2023-01-05T04:37:12.342Z,98367.19
2023-01-05T04:39:38.863Z,98367.19
2023-01-05T04:42:05.418Z,98385.69
2023-01-05T04:44:32.229Z,98386.53
2023-01-05T04:46:58.954Z,98394.47
2023-01-05T04:49:25.496Z,98377.72
2023-01-05T04:51:52.314Z,98383.00
2023-01-05T04:54:18.831Z,98390.06
2023-01-05T04:56:45.286Z,98398.00
2023-01-05T04:59:11.780Z,98392.72
2023-01-05T05:01:38.638Z,98390.06
2023-01-05T05:04:05.161Z,98405.03
2023-01-05T05:06:33.387Z,98400.63
2023-01-05T05:08:59.867Z,98411.16
2023-01-05T05:11:26.400Z,98412.97
2023-01-05T05:13:52.930Z,98420.03
2023-01-05T05:16:19.492Z,98416.50
2023-01-05T05:18:46.108Z,98413.94
2023-01-05T05:21:12.676Z,98414.81
2023-01-05T05:23:39.198Z,98400.69
2023-01-05T05:26:05.799Z,98425.31
2023-01-05T05:28:32.319Z,98433.25
2023-01-05T05:30:58.905Z,98422.69
2023-01-05T05:33:25.825Z,98419.16
2023-01-05T05:35:52.648Z,98422.69
2023-01-05T05:38:20.109Z,98417.44
2023-01-05T05:40:49.389Z,98435.91
2023-01-05T05:43:15.907Z,98433.28
2023-01-05T05:45:49.715Z,98435.91
2023-01-05T05:48:17.563Z,98441.16
2023-01-05T05:50:45.184Z,98446.44
2023-01-05T05:53:11.635Z,98433.25
2023-01-05T05:55:38.143Z,98438.53
2023-01-05T05:58:04.690Z,98449.97
2023-01-05T06:00:31.177Z,98460.50
2023-01-05T06:02:57.721Z,98454.31
2023-01-05T06:05:24.283Z,98464.00
2023-01-05T06:07:50.876Z,98459.63
2023-01-05T06:10:17.475Z,98468.41
2023-01-05T06:12:44.339Z,98471.94
2023-01-05T06:15:11.167Z,98468.41
2023-01-05T06:17:37.770Z,98459.59
2023-01-05T06:20:05.352Z,98474.56
2023-01-05T06:22:31.926Z,98480.75
2023-01-05T06:24:58.414Z,98486.03
2023-01-05T06:27:24.875Z,98490.41
2023-01-05T06:29:51.446Z,98491.31
2023-01-05T06:32:17.952Z,98493.06
2023-01-05T06:34:44.468Z,98485.16
2023-01-05T06:37:10.946Z,98496.59
2023-01-05T06:39:37.487Z,98493.09
2023-01-05T06:42:04.151Z,98506.31
2023-01-05T06:44:30.660Z,98508.91
2023-01-05T06:46:57.111Z,98515.09
2023-01-05T06:49:23.605Z,98514.19
2023-01-05T06:51:50.162Z,98521.22
2023-01-05T06:54:16.624Z,98530.03
2023-01-05T06:56:43.256Z,98533.56
2023-01-05T06:59:11.980Z,98537.97
2023-01-05T07:01:39.316Z,98544.97
2023-01-05T07:04:05.990Z,98535.31
2023-01-05T07:06:34.041Z,98552.91
2023-01-05T07:09:00.486Z,98560.84
2023-01-05T07:11:26.987Z,98552.91
2023-01-05T07:13:53.618Z,98556.44
2023-01-05T07:16:20.189Z,98563.47
2023-01-05T07:18:46.784Z,98552.91
2023-01-05T07:21:13.623Z,98560.81
2023-01-05T07:23:40.189Z,98556.44
2023-01-05T07:26:08.616Z,98571.38
2023-01-05T07:28:36.452Z,98562.59
2023-01-05T07:31:03.515Z,98573.13
2023-01-05T07:33:34.626Z,98575.78
2023-01-05T07:36:04.548Z,98577.53
2023-01-05T07:38:34.275Z,98588.97
2023-01-05T07:41:01.683Z,98584.59
2023-01-05T07:43:28.495Z,98596.88
2023-01-05T07:46:02.430Z,98603.03
2023-01-05T07:48:29.428Z,98600.41
2023-01-05T07:51:04.407Z,98593.38
2023-01-05T07:53:36.764Z,98594.25
2023-01-05T07:56:10.316Z,98603.06
2023-01-05T07:58:37.075Z,98611.84
2023-01-05T08:01:05.731Z,98621.53
2023-01-05T08:03:32.682Z,98618.00
2023-01-05T08:06:05.153Z,98626.81
2023-01-05T08:08:31.653Z,98628.53
2023-01-05T08:11:03.946Z,98619.75
2023-01-05T08:13:49.740Z,98640.84
2023-01-05T08:16:16.340Z,98645.28
2023-01-05T08:18:42.895Z,98630.31
2023-01-05T08:21:09.869Z,98648.78
2023-01-05T08:23:37.798Z,98654.09
2023-01-05T08:26:13.196Z,98659.38
2023-01-05T08:28:40.190Z,98655.84
2023-01-05T08:31:10.765Z,98665.53
2023-01-05T08:33:37.579Z,98670.81
2023-01-05T08:36:09.076Z,98677.84
2023-01-05T08:38:36.897Z,98666.41
2023-01-05T08:41:03.657Z,98678.72
2023-01-05T08:43:30.174Z,98688.38
2023-01-05T08:45:56.683Z,98683.97
2023-01-05T08:48:23.222Z,98691.91
2023-01-05T08:50:49.746Z,98688.38
2023-01-05T08:53:16.231Z,98694.50
2023-01-05T08:55:42.743Z,98699.78
2023-01-05T08:58:09.241Z,98699.78
2023-01-05T09:00:35.919Z,98709.50
2023-01-05T09:03:02.516Z,98712.13
2023-01-05T09:05:32.258Z,98708.59
2023-01-05T09:07:58.740Z,98711.25
2023-01-05T09:10:25.238Z,98720.97
2023-01-05T09:12:51.763Z,98715.69
2023-01-05T09:15:18.373Z,98727.13
2023-01-05T09:17:44.886Z,98729.75
2023-01-05T09:20:11.482Z,98728.88
2023-01-05T09:22:38.011Z,98736.78
2023-01-05T09:25:04.985Z,98737.66
2023-01-05T09:27:31.591Z,98737.66
2023-01-05T09:29:58.082Z,98741.19
2023-01-05T09:32:24.734Z,98752.66
2023-01-05T09:34:51.212Z,98756.19
2023-01-05T09:37:17.769Z,98758.81
2023-01-05T09:39:44.315Z,98766.69
2023-01-05T09:42:17.669Z,98767.59
2023-01-05T09:44:53.949Z,98772.88
2023-01-05T09:47:35.127Z,98775.50
2023-01-05T09:50:02.373Z,98778.16
2023-01-05T09:52:35.997Z,98783.41
2023-01-05T09:55:19.767Z,98786.94
2023-01-05T09:57:58.041Z,98796.63
2023-01-05T10:00:26.259Z,98791.34
2023-01-05T10:04:01.641Z,98793.97
2023-01-05T10:06:14.188Z,98798.38
2023-01-05T10:08:50.870Z,98796.59
2023-01-05T10:11:41.753Z,98793.94
2023-01-05T10:14:40.866Z,98796.56
2023-01-05T10:17:40.551Z,98795.69
2023-01-05T10:20:02.848Z,98798.34
2023-01-05T10:22:51.261Z,98793.94
2023-01-05T10:25:35.076Z,98790.41
2023-01-05T10:28:26.240Z,98797.50
2023-01-05T10:31:00.324Z,98804.53
2023-01-05T10:33:54.430Z,98805.41
2023-01-05T10:37:09.421Z,98801.84
2023-01-05T10:39:45.253Z,98804.53
2023-01-05T10:42:33.401Z,98810.66
2023-01-05T10:45:04.937Z,98802.69
2023-01-05T10:47:37.328Z,98802.72
2023-01-05T10:50:21.013Z,98809.75
2023-01-05T10:52:47.787Z,98817.63
2023-01-05T10:55:17.554Z,98815.00
2023-01-05T10:57:45.919Z,98819.41
2023-01-05T11:00:14.509Z,98822.94
2023-01-05T11:02:48.136Z,98826.44
2023-01-05T11:05:22.038Z,98823.78
2023-01-05T11:07:48.475Z,98839.63
2023-01-05T11:10:26.051Z,98839.63
2023-01-05T11:13:02.413Z,98838.78
2023-01-05T11:15:32.490Z,98844.91
2023-01-05T11:17:59.503Z,98832.63
2023-01-05T11:20:29.076Z,98843.19
2023-01-05T11:22:55.613Z,98845.84
2023-01-05T11:25:31.044Z,98851.16
2023-01-05T11:28:16.510Z,98850.28
2023-01-05T11:31:00.175Z,98856.47
2023-01-05T11:33:28.766Z,98845.03
2023-01-05T11:35:56.852Z,98845.94
2023-01-05T11:38:34.493Z,98857.38
2023-01-05T11:41:01.557Z,98871.47
2023-01-05T11:43:31.944Z,98856.50
2023-01-05T11:46:04.842Z,98859.97
2023-01-05T11:48:35.262Z,98870.53
2023-01-05T11:51:02.858Z,98864.38
2023-01-05T11:53:35.042Z,98868.75
2023-01-05T11:56:07.697Z,98866.13
2023-01-05T11:58:45.564Z,98848.53
2023-01-05T12:01:46.380Z,98849.47
2023-01-05T12:04:43.297Z,98850.34
2023-01-05T12:07:18.182Z,98851.22
2023-01-05T12:10:31.021Z,98855.63
2023-01-05T12:13:29.505Z,98863.53
2023-01-05T12:16:15.686Z,98848.53
2023-01-05T12:18:50.209Z,98856.47
2023-01-05T12:21:24.028Z,98867.06
2023-01-05T12:24:25.995Z,98871.41
2023-01-05T12:27:07.546Z,98880.19
2023-01-05T12:36:43.935Z,98859.94
2023-01-05T12:39:35.924Z,98871.34
2023-01-05T12:42:23.597Z,98874.00
2023-01-05T12:44:57.569Z,98881.91
2023-01-05T12:47:45.628Z,98894.22
2023-01-05T12:50:36.546Z,98878.41
2023-01-05T12:53:12.322Z,98885.44
2023-01-05T12:55:50.216Z,98901.25
2023-01-05T12:58:36.929Z,98895.97
2023-01-05T13:01:06.314Z,98902.16
2023-01-05T13:03:44.740Z,98899.50
2023-01-05T13:06:16.979Z,98915.34
2023-01-05T13:09:02.568Z,98916.16
2023-01-05T13:11:38.263Z,98908.25
2023-01-05T13:14:11.351Z,98917.91
2023-01-05T13:16:40.733Z,98910.88
2023-01-05T13:19:19.310Z,98910.94
2023-01-05T13:21:47.705Z,98918.84
2023-01-05T13:24:35.525Z,98926.72
2023-01-05T13:27:03.384Z,98921.47
2023-01-05T13:29:47.881Z,98926.75
2023-01-05T13:32:49.558Z,98934.69
2023-01-05T13:36:04.177Z,98948.78
2023-01-05T13:38:49.004Z,98945.25
2023-01-05T13:41:44.260Z,98947.00
2023-01-05T13:44:28.467Z,98941.75
2023-01-05T13:47:27.494Z,98947.06
2023-01-05T13:50:21.902Z,98955.00
2023-01-05T13:53:03.277Z,98957.56
2023-01-05T13:55:33.171Z,98961.97
2023-01-05T13:58:01.002Z,98971.63
2023-01-05T14:00:41.771Z,98976.94
2023-01-05T14:03:24.430Z,98983.09
2023-01-05T14:05:58.779Z,98988.41
2023-01-05T14:08:36.015Z,98986.66
2023-01-05T14:11:08.835Z,98985.75
2023-01-05T14:13:46.420Z,98992.78
2023-01-05T14:16:41.245Z,98991.00
2023-01-05T14:19:20.301Z,98994.53
2023-01-05T14:21:49.573Z,98995.41
2023-01-05T14:24:47.395Z,98998.91
2023-01-05T14:27:19.347Z,99000.66
2023-01-05T14:29:48.417Z,98998.91
2023-01-05T14:32:31.065Z,99006.84
2023-01-05T14:35:42.573Z,99017.38
2023-01-05T14:38:21.523Z,99027.94
2023-01-05T14:40:53.571Z,99033.22
2023-01-05T14:43:33.815Z,99043.75
2023-01-05T14:46:05.003Z,99041.13
2023-01-05T14:49:06.243Z,99048.13
2023-01-05T14:51:34.456Z,99042.00
2023-01-05T14:54:03.675Z,99051.69
2023-01-05T14:56:36.077Z,99060.41
2023-01-05T14:59:20.578Z,99064.78
2023-01-05T15:01:51.688Z,99067.44
2023-01-05T15:04:27.877Z,99081.50
2023-01-05T15:07:31.922Z,99071.84
2023-01-05T15:10:23.216Z,99084.13
2023-01-05T15:13:23.083Z,99090.31
2023-01-05T15:16:27.733Z,99090.34
2023-01-05T15:19:22.939Z,99087.69
2023-01-05T15:22:36.307Z,99096.47
2023-01-05T15:25:10.615Z,99094.69
2023-01-05T15:27:51.260Z,99100.84
2023-01-05T15:31:04.774Z,99107.00
2023-01-05T15:34:00.428Z,99098.19
2023-01-05T15:36:35.340Z,99106.09
2023-01-05T15:39:01.884Z,99106.06
2023-01-05T15:41:28.899Z,99113.16
2023-01-05T15:43:56.306Z,99117.53
2023-01-05T15:46:29.700Z,99120.13
2023-01-05T15:48:56.229Z,99113.97
2023-01-05T15:51:32.441Z,99131.56
2023-01-05T15:54:05.485Z,99116.63
2023-01-05T15:56:35.774Z,99123.66
2023-01-05T15:59:17.597Z,99128.03
2023-01-05T16:01:44.056Z,99134.25
2023-01-05T16:04:14.619Z,99126.28
2023-01-05T16:06:45.953Z,99135.03
2023-01-05T16:09:34.283Z,99137.66
2023-01-05T16:12:08.915Z,99128.88
2023-01-05T16:14:40.945Z,99143.88
2023-01-05T16:17:11.742Z,99135.06
2023-01-05T16:19:44.149Z,99143.81
2023-01-05T16:22:23.708Z,99141.06
2023-01-05T16:24:59.189Z,99140.09
2023-01-05T16:27:26.642Z,99144.47
2023-01-05T16:29:53.282Z,99134.81
2023-01-05T16:32:38.021Z,99140.91
2023-01-05T16:35:19.764Z,99152.25
2023-01-05T16:38:04.364Z,99142.53
2023-01-05T16:40:31.480Z,99145.16
2023-01-05T16:42:58.130Z,99145.16
2023-01-05T16:45:28.476Z,99151.25
2023-01-05T16:47:55.022Z,99150.34
2023-01-05T16:50:21.495Z,99156.47
2023-01-05T16:52:58.164Z,99159.13
2023-01-05T16:55:30.589Z,99161.75
2023-01-05T16:57:58.740Z,99157.38
2023-01-05T17:00:28.027Z,99161.69
2023-01-05T17:02:58.773Z,99170.38
2023-01-05T17:05:31.052Z,99170.34
2023-01-05T17:08:19.737Z,99181.75
2023-01-05T17:10:47.038Z,99176.44
2023-01-05T17:13:19.779Z,99186.97
2023-01-05T17:15:49.396Z,99189.66
2023-01-05T17:18:17.632Z,99185.25
2023-01-05T17:20:45.809Z,99185.19
2023-01-05T17:23:19.309Z,99188.69
2023-01-05T17:25:45.884Z,99194.94
2023-01-05T17:30:44.198Z,99194.91
2023-01-05T17:33:11.055Z,99195.78
2023-01-05T17:35:37.653Z,99206.34
2023-01-05T17:38:04.113Z,99204.59
2023-01-05T17:40:31.073Z,99199.34
2023-01-05T17:42:57.547Z,99202.88
2023-01-05T17:45:27.483Z,99208.13
2023-01-05T17:47:54.371Z,99202.88
2023-01-05T17:50:24.045Z,99204.63
2023-01-05T17:52:50.551Z,99204.63
2023-01-05T17:55:17.325Z,99204.63
2023-01-05T17:57:43.795Z,99209.88
2023-01-05T18:00:13.339Z,99214.31
2023-01-05T18:02:40.584Z,99208.13
2023-01-05T18:05:08.399Z,99211.63
2023-01-05T18:07:36.452Z,99215.16
2023-01-05T18:10:05.019Z,99206.38
2023-01-05T18:12:31.499Z,99205.47
2023-01-05T18:14:58.223Z,99206.34
2023-01-05T18:17:24.906Z,99204.56
2023-01-05T18:19:51.421Z,99205.44
2023-01-05T18:22:18.139Z,99202.81
2023-01-05T18:24:45.424Z,99198.41
2023-01-05T18:27:12.418Z,99204.56
2023-01-05T18:29:40.723Z,99198.34
2023-01-05T18:32:08.428Z,99201.00
2023-01-05T18:34:35.495Z,99196.59
2023-01-05T18:37:06.714Z,99205.38
2023-01-05T18:39:37.448Z,99200.06
2023-01-05T18:42:04.258Z,99208.88
2023-01-05T18:44:30.776Z,99209.72
2023-01-05T18:46:57.315Z,99215.00
2023-01-05T18:49:23.839Z,99207.97
2023-01-05T18:51:52.385Z,99209.72
2023-01-05T18:54:19.458Z,99200.97
2023-01-05T18:56:46.076Z,99207.13
2023-01-05T18:59:13.508Z,99200.94
2023-01-05T19:01:42.837Z,99204.47
2023-01-05T19:04:11.588Z,99205.34
2023-01-05T19:06:39.193Z,99205.34
2023-01-05T19:09:08.718Z,99207.94
2023-01-05T19:11:36.157Z,99211.47
2023-01-05T19:14:04.592Z,99215.00
2023-01-05T19:16:33.515Z,99209.72
2023-01-05T19:19:04.127Z,99200.06
2023-01-05T19:21:32.615Z,99198.28
2023-01-05T19:24:01.047Z,99200.94
2023-01-05T19:26:31.380Z,99202.69
2023-01-05T19:29:06.398Z,99200.94
2023-01-05T19:31:32.997Z,99207.97
2023-01-05T19:33:59.524Z,99207.13
2023-01-05T19:36:32.473Z,99203.59
2023-01-05T19:39:10.208Z,99206.25
2023-01-05T19:41:38.387Z,99200.09
2023-01-05T19:44:05.254Z,99195.72
2023-01-05T19:46:32.204Z,99196.59
2023-01-05T19:49:02.339Z,99201.09
2023-01-05T19:51:30.153Z,99197.56
2023-01-05T19:54:01.641Z,99193.16
2023-01-05T19:56:33.938Z,99199.34
2023-01-05T19:59:10.638Z,99202.00
2023-01-05T20:01:37.744Z,99197.59
2023-01-05T20:04:04.806Z,99200.25
2023-01-05T20:06:36.362Z,99201.16
2023-01-05T20:09:06.624Z,99195.06
2023-01-05T20:11:39.546Z,99194.19
2023-01-05T20:14:06.059Z,99185.41
2023-01-05T20:16:33.132Z,99191.56
2023-01-05T20:19:00.078Z,99192.44
2023-01-05T20:21:27.398Z,99195.97
2023-01-05T20:23:54.337Z,99195.97
2023-01-05T20:26:22.696Z,99190.69
2023-01-05T20:28:49.455Z,99195.97
2023-01-05T20:31:15.865Z,99193.34
2023-01-05T20:33:42.367Z,99193.38
2023-01-05T20:36:09.035Z,99196.03
2023-01-05T20:38:35.608Z,99196.91
2023-01-05T20:41:02.157Z,99196.06
2023-01-05T20:43:28.626Z,99192.53
2023-01-05T20:45:55.071Z,99192.53
2023-01-05T20:48:21.561Z,99196.84
2023-01-05T20:50:48.098Z,99197.69
2023-01-05T20:53:14.592Z,99197.63
2023-01-05T20:55:41.107Z,99195.84
2023-01-05T20:58:07.597Z,99202.00
2023-01-05T21:00:34.157Z,99201.03
2023-01-05T21:03:00.699Z,99195.78
2023-01-05T21:05:29.904Z,99190.44
2023-01-05T21:07:56.411Z,99188.69
2023-01-05T21:10:22.938Z,99186.06
2023-01-05T21:12:52.454Z,99193.13
2023-01-05T21:15:19.022Z,99189.63
2023-01-05T21:17:45.578Z,99194.91
2023-01-05T21:20:12.103Z,99204.56
2023-01-05T21:22:38.571Z,99201.03
2023-01-05T21:25:05.420Z,99200.22
2023-01-05T21:27:31.882Z,99205.53
2023-01-05T21:29:58.525Z,99194.97
2023-01-05T21:32:25.037Z,99196.72
2023-01-05T21:34:51.698Z,99201.09
2023-01-05T21:37:18.177Z,99199.34
2023-01-05T21:39:44.796Z,99196.72
2023-01-05T21:42:33.179Z,99194.06
2023-01-05T21:44:59.817Z,99196.75
2023-01-05T21:47:26.820Z,99189.69
2023-01-05T21:49:53.341Z,99195.88
2023-01-05T21:52:38.238Z,99201.16
2023-01-05T21:55:23.563Z,99183.56
2023-01-05T21:57:50.001Z,99180.06
2023-01-05T22:00:16.680Z,99178.38
2023-01-05T22:02:43.215Z,99177.53
2023-01-05T22:05:09.686Z,99175.78
2023-01-05T22:07:36.328Z,99165.22
2023-01-05T22:10:03.913Z,99171.38
2023-01-05T22:12:30.750Z,99164.38
2023-01-05T22:14:57.247Z,99160.88
2023-01-05T22:17:23.797Z,99168.78
2023-01-05T22:19:53.203Z,99169.66
2023-01-05T22:22:20.796Z,99169.66
2023-01-05T22:24:47.756Z,99166.16
2023-01-05T22:27:14.217Z,99166.16
2023-01-05T22:29:40.704Z,99160.81
2023-01-05T22:32:07.279Z,99167.81
2023-01-05T22:34:33.822Z,99159.06
2023-01-05T22:37:00.317Z,99156.44
2023-01-05T22:39:30.060Z,99163.47
2023-01-05T22:41:59.371Z,99162.63
2023-01-05T22:44:25.847Z,99165.28
2023-01-05T22:46:52.309Z,99161.78
2023-01-05T22:49:18.902Z,99157.38
2023-01-05T22:51:46.283Z,99153.88
2023-01-05T22:54:12.880Z,99159.13
2023-01-05T22:56:39.928Z,99157.41
2023-01-05T22:59:06.523Z,99155.66
2023-01-05T23:01:35.642Z,99147.75
2023-01-05T23:04:07.016Z,99157.44
2023-01-05T23:06:37.357Z,99151.25
2023-01-05T23:09:08.642Z,99137.25
2023-01-05T23:11:40.364Z,99139.03
2023-01-05T23:14:09.136Z,99140.81
2023-01-05T23:16:36.384Z,99137.31
2023-01-05T23:19:05.080Z,99130.28
2023-01-05T23:21:32.112Z,99124.13
2023-01-05T23:23:59.331Z,99117.97
2023-01-05T23:26:30.458Z,99112.66
2023-01-05T23:28:57.029Z,99109.16
2023-01-05T23:31:23.947Z,99119.69
2023-01-05T23:33:50.425Z,99121.44
2023-01-05T23:36:19.038Z,99111.78
2023-01-05T23:38:46.258Z,99109.16
2023-01-05T23:41:14.736Z,99110.03
2023-01-05T23:43:45.076Z,99110.06
2023-01-05T23:46:20.838Z,99096.88
2023-01-05T23:48:48.136Z,99099.59
2023-01-05T23:51:16.352Z,99094.34
2023-01-05T23:53:48.285Z,99101.41
2023-01-05T23:56:20.894Z,99100.59
2023-01-05T23:58:48.806Z,99098.84
